Time;durP1;ratioP1;P1;durP2;ratioP2;P2;SDS_P1;SDS_P2;PMS_P1;PMS_P2;Temp;Humidity;BMP_temperature;BMP_pressure;BME280_temperature;BME280_humidity;BME280_pressure;Samples;Min_cycle;Max_cycle;Signal;HPM_P1;HPM_P2
2021/07/23 00:01:54;;;;;;;12.30;10.10;;;15.60;99.90;;;;;;5035536;28;20751;-67
2021/07/23 00:04:20;;;;;;;13.60;10.93;;;15.60;99.90;;;;;;5034477;28;20172;-67
2021/07/23 00:06:48;;;;;;;19.53;12.10;;;15.70;99.90;;;;;;5035193;28;20261;-67
2021/07/23 00:09:13;;;;;;;12.93;10.87;;;15.80;99.90;;;;;;5035155;28;20204;-67
2021/07/23 00:11:39;;;;;;;14.77;11.10;;;15.70;99.90;;;;;;5035336;28;20489;-67
2021/07/23 00:14:04;;;;;;;13.53;10.60;;;15.80;99.90;;;;;;5035454;28;20511;-67
2021/07/23 00:16:30;;;;;;;13.23;10.73;;;15.70;99.90;;;;;;5035209;28;20178;-66
2021/07/23 00:18:56;;;;;;;19.03;10.80;;;15.80;99.90;;;;;;5034940;28;20543;-67
2021/07/23 00:21:21;;;;;;;14.10;10.80;;;15.80;99.90;;;;;;5034983;28;20182;-67
2021/07/23 00:23:47;;;;;;;11.60;10.10;;;15.80;99.90;;;;;;5035140;28;20698;-67
2021/07/23 00:26:13;;;;;;;12.33;11.07;;;15.70;99.90;;;;;;5035209;28;20179;-67
2021/07/23 00:28:39;;;;;;;13.47;10.63;;;15.70;99.90;;;;;;5034750;28;20688;-66
2021/07/23 00:31:05;;;;;;;19.93;11.20;;;15.70;99.90;;;;;;5034623;28;20416;-67
2021/07/23 00:33:31;;;;;;;16.27;10.73;;;15.70;99.90;;;;;;5034762;28;20485;-67
2021/07/23 00:35:57;;;;;;;17.60;10.93;;;15.70;99.90;;;;;;5035062;28;20164;-67
2021/07/23 00:38:23;;;;;;;14.60;9.87;;;15.80;99.90;;;;;;5034780;28;20568;-67
2021/07/23 00:40:49;;;;;;;14.60;10.40;;;15.80;99.90;;;;;;5034639;28;20423;-67
2021/07/23 00:43:14;;;;;;;12.90;10.43;;;15.70;99.90;;;;;;5034876;28;20198;-67
2021/07/23 00:45:40;;;;;;;15.83;12.93;;;15.60;99.90;;;;;;5034728;28;20208;-67
2021/07/23 00:48:06;;;;;;;12.27;9.90;;;15.60;99.90;;;;;;5034335;28;20203;-66
2021/07/23 00:50:32;;;;;;;17.10;11.33;;;15.50;99.90;;;;;;5034422;28;20162;-67
2021/07/23 00:52:58;;;;;;;13.50;11.27;;;15.50;99.90;;;;;;5034566;28;20186;-67
2021/07/23 00:55:25;;;;;;;16.57;11.77;;;15.50;99.90;;;;;;5034537;28;20452;-67
2021/07/23 00:57:53;;;;;;;15.70;11.17;;;15.60;99.90;;;;;;5034514;28;20465;-67
2021/07/23 01:00:19;;;;;;;13.60;10.67;;;15.50;99.90;;;;;;5034211;28;20420;-66
2021/07/23 01:02:46;;;;;;;14.00;10.70;;;15.40;99.90;;;;;;5034309;28;20504;-66
2021/07/23 01:05:12;;;;;;;12.90;10.40;;;15.50;99.90;;;;;;5034322;28;20308;-67
2021/07/23 01:07:37;;;;;;;13.10;9.47;;;15.50;99.90;;;;;;5033888;28;20562;-67
2021/07/23 01:10:04;;;;;;;15.47;11.07;;;15.40;99.90;;;;;;5032639;28;20183;-66
2021/07/23 01:12:30;;;;;;;11.93;10.57;;;15.40;99.90;;;;;;5034061;28;20170;-67
2021/07/23 01:14:59;;;;;;;14.83;12.00;;;15.40;99.90;;;;;;5033890;28;20417;-66
2021/07/23 01:17:26;;;;;;;17.60;10.80;;;15.40;99.90;;;;;;5033894;28;20798;-67
2021/07/23 01:19:58;;;;;;;12.33;10.57;;;15.30;99.90;;;;;;5033734;28;20810;-67
2021/07/23 01:22:27;;;;;;;12.47;10.67;;;15.30;99.90;;;;;;5034184;28;20434;-67
2021/07/23 01:24:54;;;;;;;13.87;10.97;;;15.30;99.90;;;;;;5033875;28;20417;-67
2021/07/23 01:27:20;;;;;;;15.57;10.73;;;15.30;99.90;;;;;;5033769;28;20476;-67
2021/07/23 01:29:46;;;;;;;13.23;10.83;;;15.30;99.90;;;;;;5033772;28;20409;-67
2021/07/23 01:32:12;;;;;;;14.33;10.77;;;15.30;99.90;;;;;;5033963;28;20408;-67
2021/07/23 01:34:39;;;;;;;19.50;11.80;;;15.20;99.90;;;;;;5033944;28;20496;-66
2021/07/23 01:37:05;;;;;;;11.30;10.00;;;15.20;99.90;;;;;;5033660;28;20251;-67
2021/07/23 01:39:32;;;;;;;18.90;10.83;;;15.10;99.90;;;;;;5033458;28;20787;-67
2021/07/23 01:41:58;;;;;;;14.13;10.53;;;15.20;99.90;;;;;;5033765;28;20425;-66
2021/07/23 01:44:23;;;;;;;14.20;11.00;;;15.20;99.90;;;;;;5033810;28;20447;-67
2021/07/23 01:46:50;;;;;;;12.93;10.53;;;15.20;99.90;;;;;;5033515;28;20191;-66
2021/07/23 01:49:16;;;;;;;17.27;12.00;;;15.20;99.90;;;;;;5033555;28;20202;-66
2021/07/23 01:51:41;;;;;;;15.00;10.57;;;15.20;99.90;;;;;;5033581;28;20448;-67
2021/07/23 01:54:07;;;;;;;14.80;11.03;;;15.20;99.90;;;;;;5033512;28;20178;-66
2021/07/23 01:56:34;;;;;;;13.60;10.80;;;15.10;99.90;;;;;;5033508;28;20691;-67
2021/07/23 01:58:59;;;;;;;15.90;14.20;;;15.10;99.90;;;;;;5033439;28;20265;-66
2021/07/23 02:01:25;;;;;;;14.03;11.20;;;15.10;99.90;;;;;;5033394;28;20444;-67
2021/07/23 02:03:51;;;;;;;16.60;11.90;;;15.10;99.90;;;;;;5033453;28;20736;-66
2021/07/23 02:06:16;;;;;;;14.73;11.10;;;15.10;99.90;;;;;;5033190;28;20193;-66
2021/07/23 02:08:42;;;;;;;13.90;9.77;;;15.10;99.90;;;;;;5033174;28;20213;-67
2021/07/23 02:11:07;;;;;;;13.37;11.33;;;15.10;99.90;;;;;;5033270;28;20183;-67
2021/07/23 02:13:33;;;;;;;14.03;11.27;;;15.00;99.90;;;;;;5033192;28;20645;-67
2021/07/23 02:16:03;;;;;;;13.10;10.47;;;15.00;99.90;;;;;;5033395;28;20181;-67
2021/07/23 02:18:29;;;;;;;14.80;11.60;;;15.00;99.90;;;;;;5033138;28;20669;-67
2021/07/23 02:20:54;;;;;;;15.87;11.77;;;15.00;99.90;;;;;;5033170;28;20444;-67
2021/07/23 02:23:20;;;;;;;13.90;11.17;;;15.10;99.90;;;;;;5033309;28;20179;-67
2021/07/23 02:25:45;;;;;;;17.17;11.30;;;15.00;99.90;;;;;;5033119;28;20697;-66
2021/07/23 02:28:11;;;;;;;15.37;11.03;;;15.00;99.90;;;;;;5035978;28;20573;-66
2021/07/23 02:30:39;;;;;;;13.83;10.47;;;15.00;99.90;;;;;;5036972;28;20198;-66
2021/07/23 02:33:05;;;;;;;19.70;14.80;;;15.00;99.90;;;;;;5037250;28;20181;-66
2021/07/23 02:35:30;;;;;;;15.87;11.90;;;15.00;99.90;;;;;;5037131;28;20769;-66
2021/07/23 02:37:56;;;;;;;14.90;12.27;;;15.00;99.90;;;;;;5037104;28;20204;-67
2021/07/23 02:40:22;;;;;;;16.80;11.27;;;15.00;99.90;;;;;;5036771;28;20181;-67
2021/07/23 02:42:47;;;;;;;14.40;10.90;;;15.00;99.90;;;;;;5037274;28;20544;-67
2021/07/23 02:45:13;;;;;;;15.60;11.17;;;15.00;99.90;;;;;;5036840;28;20174;-67
2021/07/23 02:47:38;;;;;;;12.37;11.07;;;15.00;99.90;;;;;;5036744;28;20205;-67
2021/07/23 02:50:04;;;;;;;16.53;12.27;;;15.00;99.90;;;;;;5036587;28;20647;-67
2021/07/23 02:52:30;;;;;;;15.63;11.47;;;15.00;99.90;;;;;;5036659;28;20181;-67
2021/07/23 02:54:55;;;;;;;14.80;10.57;;;15.00;99.90;;;;;;5037046;28;20905;-66
2021/07/23 02:57:21;;;;;;;14.63;11.73;;;15.00;99.90;;;;;;5037076;28;20233;-67
2021/07/23 02:59:46;;;;;;;18.67;12.77;;;14.90;99.90;;;;;;5036474;28;20602;-67
2021/07/23 03:02:12;;;;;;;14.77;11.60;;;15.00;99.90;;;;;;5035203;28;20178;-67
2021/07/23 03:04:38;;;;;;;12.57;11.20;;;14.90;99.90;;;;;;5036574;28;20232;-67
2021/07/23 03:07:03;;;;;;;16.67;12.37;;;15.00;99.90;;;;;;5036255;28;20688;-67
2021/07/23 03:09:29;;;;;;;14.77;11.80;;;15.00;99.90;;;;;;5036147;28;20213;-67
2021/07/23 03:11:54;;;;;;;16.17;11.47;;;15.00;99.90;;;;;;5036246;28;20234;-66
2021/07/23 03:14:20;;;;;;;15.67;12.43;;;15.00;99.90;;;;;;5036342;28;20253;-67
2021/07/23 03:16:46;;;;;;;16.53;12.70;;;15.00;99.90;;;;;;5036223;28;20194;-67
2021/07/23 03:19:11;;;;;;;17.33;12.63;;;15.00;99.90;;;;;;5036067;28;20547;-67
2021/07/23 03:21:37;;;;;;;19.33;12.33;;;15.00;99.90;;;;;;5036198;28;20590;-67
2021/07/23 03:24:03;;;;;;;15.80;11.27;;;15.00;99.90;;;;;;5035998;28;20178;-67
2021/07/23 03:26:28;;;;;;;19.77;12.70;;;15.00;99.90;;;;;;5036187;28;20187;-67
2021/07/23 03:28:54;;;;;;;17.30;13.23;;;15.00;99.90;;;;;;5036097;28;20453;-67
2021/07/23 03:31:19;;;;;;;16.40;12.60;;;15.00;99.90;;;;;;5036090;28;20170;-67
2021/07/23 03:33:45;;;;;;;13.43;11.20;;;15.00;99.90;;;;;;5036061;28;20178;-67
2021/07/23 03:36:11;;;;;;;18.03;12.90;;;15.00;99.90;;;;;;5036006;28;20181;-66
2021/07/23 03:38:36;;;;;;;19.73;14.17;;;15.00;99.90;;;;;;5034619;28;20198;-67
2021/07/23 03:41:02;;;;;;;14.73;11.67;;;15.00;99.90;;;;;;5035639;28;20182;-67
2021/07/23 03:43:28;;;;;;;20.40;12.73;;;15.00;99.90;;;;;;5035788;28;20178;-67
2021/07/23 03:45:54;;;;;;;13.93;11.83;;;15.00;99.90;;;;;;5035674;28;20183;-67
2021/07/23 03:48:19;;;;;;;16.90;11.60;;;14.90;99.90;;;;;;5035683;28;20197;-66
2021/07/23 03:50:45;;;;;;;14.83;11.13;;;14.80;99.90;;;;;;5035598;28;20416;-66
2021/07/23 03:53:11;;;;;;;17.40;11.37;;;14.90;99.90;;;;;;5035477;28;20512;-67
2021/07/23 03:55:37;;;;;;;18.33;13.30;;;14.90;99.90;;;;;;5035522;28;20505;-67
2021/07/23 03:58:04;;;;;;;18.23;12.63;;;14.90;99.90;;;;;;5035492;28;20198;-66
2021/07/23 04:00:30;;;;;;;16.03;10.67;;;15.00;99.90;;;;;;5034083;28;20179;-66
2021/07/23 04:02:56;;;;;;;18.90;14.87;;;15.00;99.90;;;;;;5035567;28;20513;-67
2021/07/23 04:05:21;;;;;;;18.20;12.30;;;15.00;99.90;;;;;;5035500;28;20233;-67
2021/07/23 04:07:47;;;;;;;15.83;11.53;;;15.00;99.90;;;;;;5035208;28;20226;-67
2021/07/23 04:10:13;;;;;;;21.00;12.90;;;15.00;99.90;;;;;;5035339;28;20171;-67
2021/07/23 04:12:38;;;;;;;18.67;13.20;;;15.00;99.90;;;;;;5035208;28;20184;-66
2021/07/23 04:15:09;;;;;;;15.83;12.10;;;15.00;99.90;;;;;;5035138;28;20178;-67
2021/07/23 04:17:35;;;;;;;19.90;11.73;;;15.10;99.90;;;;;;5035204;28;20207;-67
2021/07/23 04:20:00;;;;;;;16.37;10.80;;;15.10;99.90;;;;;;5034905;28;20414;-67
2021/07/23 04:22:26;;;;;;;17.90;12.10;;;15.20;99.90;;;;;;5035165;28;20178;-66
2021/07/23 04:24:52;;;;;;;16.93;12.50;;;15.30;99.90;;;;;;5034960;28;20626;-67
2021/07/23 04:27:17;;;;;;;15.43;12.07;;;15.30;99.90;;;;;;5034799;28;20207;-67
2021/07/23 04:29:47;;;;;;;17.63;13.43;;;15.40;99.90;;;;;;5034801;28;20167;-67
2021/07/23 04:32:12;;;;;;;17.43;12.00;;;15.40;99.90;;;;;;5034990;28;20229;-67
2021/07/23 04:34:38;;;;;;;16.10;9.77;;;15.40;99.90;;;;;;5034906;28;20406;-67
2021/07/23 04:37:03;;;;;;;13.57;11.03;;;15.40;99.90;;;;;;5035055;28;20249;-67
2021/07/23 04:39:30;;;;;;;19.73;11.43;;;15.50;99.90;;;;;;5034799;28;20229;-67
2021/07/23 04:41:56;;;;;;;16.90;11.03;;;15.50;99.90;;;;;;5034882;28;20258;-67
2021/07/23 04:44:21;;;;;;;13.70;11.93;;;15.60;99.90;;;;;;5034672;28;20446;-67
2021/07/23 04:46:47;;;;;;;12.40;9.77;;;15.70;99.90;;;;;;5034706;28;20211;-67
2021/07/23 04:49:12;;;;;;;15.40;11.37;;;15.80;99.90;;;;;;5034078;28;20202;-67
2021/07/23 04:51:38;;;;;;;14.83;11.93;;;15.80;99.90;;;;;;5034190;28;20226;-67
2021/07/23 04:54:04;;;;;;;14.80;10.93;;;16.00;99.90;;;;;;5034803;28;20171;-67
2021/07/23 04:56:29;;;;;;;11.83;10.13;;;16.20;99.90;;;;;;5034469;28;20163;-67
2021/07/23 04:58:55;;;;;;;14.23;10.77;;;16.30;99.90;;;;;;5034262;28;20228;-67
2021/07/23 05:01:20;;;;;;;14.73;10.27;;;16.50;99.90;;;;;;5034423;28;20174;-67
2021/07/23 05:03:46;;;;;;;12.77;11.10;;;16.70;99.90;;;;;;5034447;28;20200;-67
2021/07/23 05:06:12;;;;;;;13.57;9.73;;;16.90;99.90;;;;;;5034083;28;20201;-67
2021/07/23 05:08:38;;;;;;;12.60;10.40;;;17.20;99.90;;;;;;5033938;28;20243;-67
2021/07/23 05:11:07;;;;;;;15.40;10.53;;;17.30;99.90;;;;;;5032681;28;20178;-67
2021/07/23 05:13:35;;;;;;;13.13;10.80;;;17.50;99.90;;;;;;5034237;28;20441;-66
2021/07/23 05:16:03;;;;;;;11.20;9.47;;;17.70;99.90;;;;;;5034103;28;20397;-67
2021/07/23 05:18:30;;;;;;;12.70;9.60;;;17.80;99.90;;;;;;5034037;28;20917;-66
2021/07/23 05:20:56;;;;;;;21.70;10.50;;;18.00;99.90;;;;;;5033768;28;20759;-67
2021/07/23 05:23:22;;;;;;;14.80;9.20;;;18.00;99.90;;;;;;5033940;28;20451;-67
2021/07/23 05:25:49;;;;;;;10.97;8.83;;;18.10;99.90;;;;;;5033870;28;20799;-67
2021/07/23 05:28:14;;;;;;;11.23;9.50;;;18.20;99.90;;;;;;5033694;28;20225;-67
2021/07/23 05:30:41;;;;;;;12.90;8.73;;;18.50;99.90;;;;;;5033827;28;20414;-67
2021/07/23 05:33:07;;;;;;;13.00;10.10;;;18.70;99.90;;;;;;5033910;28;20406;-67
2021/07/23 05:35:32;;;;;;;14.03;8.37;;;18.90;99.90;;;;;;5034155;28;20399;-67
2021/07/23 05:37:58;;;;;;;12.77;9.83;;;19.00;99.90;;;;;;5033747;28;20191;-67
2021/07/23 05:40:23;;;;;;;11.57;10.23;;;19.20;99.80;;;;;;5033526;28;20175;-67
2021/07/23 05:42:49;;;;;;;11.67;9.30;;;19.40;99.50;;;;;;5033716;28;20676;-67
2021/07/23 05:45:15;;;;;;;9.97;7.60;;;19.50;98.80;;;;;;5033679;28;20172;-67
2021/07/23 05:47:40;;;;;;;8.73;7.53;;;19.60;98.50;;;;;;5033606;28;20293;-67
2021/07/23 05:50:06;;;;;;;9.73;8.73;;;19.80;98.30;;;;;;5033372;28;20198;-67
2021/07/23 05:52:32;;;;;;;14.13;9.17;;;19.90;98.00;;;;;;5033498;28;20179;-67
2021/07/23 05:54:57;;;;;;;10.97;8.27;;;20.00;98.20;;;;;;5033506;28;20409;-67
2021/07/23 05:57:23;;;;;;;12.60;7.83;;;20.20;98.30;;;;;;5033353;28;20282;-67
2021/07/23 05:59:49;;;;;;;13.13;9.00;;;20.40;97.50;;;;;;5033166;28;20654;-67
2021/07/23 06:02:14;;;;;;;10.77;7.97;;;20.60;97.90;;;;;;5032651;28;20713;-67
2021/07/23 06:04:41;;;;;;;12.70;9.13;;;20.80;97.50;;;;;;5033354;28;20173;-67
2021/07/23 06:07:07;;;;;;;11.03;8.87;;;21.20;97.20;;;;;;5033195;28;20203;-67
2021/07/23 06:09:33;;;;;;;10.40;8.27;;;21.50;96.10;;;;;;5033196;28;20468;-67
2021/07/23 06:11:59;;;;;;;10.70;8.63;;;21.90;95.80;;;;;;5033376;28;20444;-67
2021/07/23 06:14:25;;;;;;;9.80;8.73;;;22.20;95.30;;;;;;5033426;28;20170;-67
2021/07/23 06:16:50;;;;;;;11.10;8.43;;;22.60;94.70;;;;;;5033330;28;20427;-67
2021/07/23 06:19:16;;;;;;;8.37;7.20;;;23.00;93.70;;;;;;5033099;28;20205;-67
2021/07/23 06:21:42;;;;;;;8.93;7.57;;;23.60;93.90;;;;;;5033331;28;20538;-67
2021/07/23 06:24:07;;;;;;;8.80;7.90;;;24.30;92.40;;;;;;5033297;28;20549;-67
2021/07/23 06:26:37;;;;;;;8.83;7.93;;;25.00;91.30;;;;;;5033218;28;20171;-67
2021/07/23 06:29:02;;;;;;;7.67;6.87;;;25.70;89.30;;;;;;5033024;28;20253;-67
2021/07/23 06:31:28;;;;;;;10.97;7.33;;;26.40;86.40;;;;;;5033197;28;20768;-67
2021/07/23 06:33:54;;;;;;;9.60;6.70;;;27.30;84.00;;;;;;5032887;28;20185;-67
2021/07/23 06:36:20;;;;;;;9.53;7.97;;;28.40;78.50;;;;;;5033199;28;20254;-67
2021/07/23 06:38:45;;;;;;;9.20;7.40;;;29.20;74.40;;;;;;5032487;28;20478;-67
2021/07/23 06:41:11;;;;;;;9.90;7.40;;;30.20;72.80;;;;;;5033134;28;20179;-67
2021/07/23 06:43:36;;;;;;;11.77;8.40;;;31.00;65.70;;;;;;5033065;28;20175;-67
2021/07/23 06:46:02;;;;;;;8.37;7.47;;;31.90;60.80;;;;;;5032926;28;20638;-67
2021/07/23 06:48:28;;;;;;;8.20;7.40;;;32.60;58.10;;;;;;5032749;28;20289;-67
2021/07/23 06:50:53;;;;;;;8.37;7.13;;;33.20;56.20;;;;;;5032813;28;20254;-67
2021/07/23 06:53:19;;;;;;;9.50;8.50;;;33.80;54.10;;;;;;5032976;28;20258;-68
2021/07/23 06:55:45;;;;;;;8.30;7.50;;;34.30;52.20;;;;;;5032998;28;20688;-68
2021/07/23 06:58:11;;;;;;;8.80;7.90;;;34.40;51.50;;;;;;5032893;28;20421;-68
2021/07/23 07:00:37;;;;;;;8.00;7.20;;;34.10;51.60;;;;;;5032357;28;20254;-68
2021/07/23 07:03:07;;;;;;;8.70;7.80;;;33.90;52.20;;;;;;5033016;28;20433;-68
2021/07/23 07:05:33;;;;;;;9.30;8.33;;;33.80;51.50;;;;;;5032825;28;20406;-68
2021/07/23 07:07:59;;;;;;;9.10;8.20;;;33.90;51.70;;;;;;5032761;28;20465;-68
2021/07/23 07:10:25;;;;;;;9.60;8.50;;;34.00;52.70;;;;;;5032723;28;20226;-67
2021/07/23 07:12:58;;;;;;;9.03;7.73;;;34.10;52.90;;;;;;5033462;28;20412;-67
2021/07/23 07:15:25;;;;;;;10.00;8.87;;;33.80;53.10;;;;;;5036357;28;20406;-68
2021/07/23 07:18:01;;;;;;;9.07;8.17;;;33.30;52.80;;;;;;5036296;28;20441;-68
2021/07/23 07:20:27;;;;;;;8.97;8.07;;;33.00;53.20;;;;;;5036151;28;20443;-67
2021/07/23 07:22:54;;;;;;;9.30;6.93;;;32.90;52.10;;;;;;5036310;28;20493;-67
2021/07/23 07:25:21;;;;;;;7.70;6.90;;;32.80;53.90;;;;;;5036317;28;20434;-68
2021/07/23 07:27:47;;;;;;;8.93;8.03;;;32.80;53.90;;;;;;5035934;28;20526;-68
2021/07/23 07:30:13;;;;;;;9.57;8.00;;;32.70;52.30;;;;;;5036086;28;20406;-67
2021/07/23 07:32:38;;;;;;;8.80;7.87;;;32.90;53.80;;;;;;5036026;28;20202;-67
2021/07/23 07:35:05;;;;;;;8.73;7.13;;;33.40;54.60;;;;;;5034802;28;20429;-67
2021/07/23 07:37:30;;;;;;;9.20;7.90;;;34.00;52.70;;;;;;5035964;28;20191;-68
2021/07/23 07:39:56;;;;;;;8.13;7.33;;;34.80;51.00;;;;;;5035801;28;20463;-68
2021/07/23 07:42:22;;;;;;;9.83;8.60;;;35.50;47.70;;;;;;5035729;28;20189;-68
2021/07/23 07:44:49;;;;;;;9.03;8.10;;;36.00;46.80;;;;;;5035983;28;20634;-68
2021/07/23 07:47:15;;;;;;;8.30;7.50;;;36.00;44.60;;;;;;5035712;28;20186;-68
2021/07/23 07:49:41;;;;;;;8.90;8.00;;;36.00;45.70;;;;;;5035638;28;20433;-67
2021/07/23 07:52:07;;;;;;;10.80;8.20;;;36.50;45.30;;;;;;5035765;28;20394;-68
2021/07/23 07:54:32;;;;;;;8.47;7.60;;;36.60;45.00;;;;;;5035585;28;20493;-68
2021/07/23 07:57:08;;;;;;;8.40;7.30;;;36.80;44.10;;;;;;5034424;28;20945;-68
2021/07/23 07:59:34;;;;;;;9.30;8.10;;;37.30;43.90;;;;;;5035439;28;20565;-68
2021/07/23 08:02:00;;;;;;;9.93;8.93;;;37.50;41.10;;;;;;5035506;28;20443;-68
2021/07/23 08:04:25;;;;;;;8.13;7.33;;;37.50;41.90;;;;;;5035534;28;20402;-68
2021/07/23 08:06:51;;;;;;;10.67;8.07;;;37.50;43.30;;;;;;5035342;28;20206;-68
2021/07/23 08:09:17;;;;;;;9.33;7.13;;;37.50;41.40;;;;;;5035065;28;20199;-68
2021/07/23 08:11:43;;;;;;;9.80;7.20;;;37.20;44.00;;;;;;5035468;28;20221;-68
2021/07/23 08:14:09;;;;;;;8.53;7.43;;;37.50;42.50;;;;;;5035243;28;20163;-68
2021/07/23 08:16:35;;;;;;;7.93;7.23;;;38.00;41.10;;;;;;5035071;28;20428;-67
2021/07/23 08:19:04;;;;;;;8.60;7.23;;;38.40;40.50;;;;;;5035057;28;20174;-68
2021/07/23 08:21:32;;;;;;;7.90;7.10;;;38.40;39.50;;;;;;5035200;28;20766;-68
2021/07/23 08:24:00;;;;;;;7.30;6.60;;;38.50;41.50;;;;;;5034976;28;20504;-68
2021/07/23 08:26:26;;;;;;;7.60;6.80;;;38.80;41.60;;;;;;5034708;28;20406;-68
2021/07/23 08:28:52;;;;;;;8.73;7.80;;;38.80;38.10;;;;;;5034719;28;20510;-68
2021/07/23 08:31:20;;;;;;;8.07;7.37;;;38.50;37.30;;;;;;5035029;28;20167;-68
2021/07/23 08:33:46;;;;;;;7.83;7.10;;;37.70;40.50;;;;;;5035004;28;20522;-67
2021/07/23 08:36:11;;;;;;;8.30;7.50;;;37.70;38.90;;;;;;5035041;28;20402;-67
2021/07/23 08:38:37;;;;;;;7.73;6.93;;;37.70;40.50;;;;;;5034821;28;20264;-68
2021/07/23 08:41:03;;;;;;;8.10;7.30;;;37.80;40.50;;;;;;5034582;28;20205;-68
2021/07/23 08:43:30;;;;;;;9.60;8.20;;;37.10;40.40;;;;;;5034716;28;20638;-68
2021/07/23 08:45:56;;;;;;;9.13;6.57;;;36.90;42.50;;;;;;5034708;28;20393;-68
2021/07/23 08:48:22;;;;;;;7.37;6.67;;;37.30;41.00;;;;;;5034670;28;20859;-67
2021/07/23 08:50:48;;;;;;;8.17;7.37;;;37.80;39.00;;;;;;5034587;28;20401;-68
2021/07/23 08:53:14;;;;;;;8.00;7.30;;;37.60;37.20;;;;;;5033397;28;20258;-68
2021/07/23 08:55:40;;;;;;;8.77;7.47;;;37.40;37.50;;;;;;5034494;28;20173;-68
2021/07/23 08:58:09;;;;;;;9.30;7.63;;;37.60;37.70;;;;;;5034346;28;20194;-68
2021/07/23 09:00:36;;;;;;;9.67;8.67;;;37.30;36.00;;;;;;5034276;28;20397;-68
2021/07/23 09:03:09;;;;;;;9.73;8.73;;;36.70;37.40;;;;;;5034527;28;20492;-68
2021/07/23 09:05:36;;;;;;;8.57;7.77;;;37.00;37.40;;;;;;5034257;28;20397;-68
2021/07/23 09:08:15;;;;;;;8.93;7.70;;;36.20;36.70;;;;;;5034156;28;20456;-68
2021/07/23 09:10:42;;;;;;;13.50;12.10;;;36.30;37.60;;;;;;5034180;28;20390;-68
2021/07/23 09:13:08;;;;;;;8.70;7.80;;;36.30;37.40;;;;;;5034335;28;20893;-68
2021/07/23 09:15:43;;;;;;;9.10;8.20;;;37.00;39.10;;;;;;5034216;28;20401;-68
2021/07/23 09:18:35;;;;;;;9.43;8.13;;;37.30;37.00;;;;;;5034144;28;20947;-68
2021/07/23 09:21:03;;;;;;;8.50;7.70;;;37.60;36.70;;;;;;5033875;28;20402;-65
2021/07/23 09:23:32;;;;;;;8.40;7.60;;;37.10;39.70;;;;;;5033910;28;20418;-65
2021/07/23 09:26:10;;;;;;;9.57;8.13;;;37.70;38.90;;;;;;5033975;28;20409;-65
2021/07/23 09:28:38;;;;;;;8.47;7.57;;;37.70;36.00;;;;;;5033724;28;20459;-66
2021/07/23 09:31:05;;;;;;;8.13;6.97;;;37.40;36.20;;;;;;5033653;28;20402;-65
2021/07/23 09:33:39;;;;;;;8.70;7.57;;;37.40;37.40;;;;;;5033965;28;20406;-65
2021/07/23 09:36:10;;;;;;;11.67;8.57;;;38.00;36.90;;;;;;5034029;28;20398;-65
2021/07/23 09:38:42;;;;;;;8.50;7.67;;;38.40;36.80;;;;;;5033601;28;20951;-65
2021/07/23 09:41:30;;;;;;;8.97;8.07;;;38.40;36.60;;;;;;5033436;28;20413;-65
2021/07/23 09:44:12;;;;;;;9.90;8.83;;;37.50;36.80;;;;;;5033318;28;20429;-66
2021/07/23 09:46:46;;;;;;;8.50;7.60;;;37.30;36.20;;;;;;5033638;28;20807;-65
2021/07/23 09:49:22;;;;;;;10.10;7.37;;;37.40;40.60;;;;;;5033434;28;20456;-65
2021/07/23 09:51:49;;;;;;;8.77;7.77;;;37.30;37.70;;;;;;5033864;28;20463;-66
2021/07/23 09:54:14;;;;;;;9.13;8.20;;;36.50;36.60;;;;;;5033438;28;20438;-65
2021/07/23 09:56:41;;;;;;;8.83;7.80;;;36.30;36.00;;;;;;5033576;28;20801;-65
2021/07/23 09:59:11;;;;;;;9.60;8.03;;;36.50;39.50;;;;;;5033339;28;20674;-65
2021/07/23 10:01:46;;;;;;;8.67;7.70;;;37.40;38.70;;;;;;5033460;28;20405;-65
2021/07/23 10:04:32;;;;;;;8.33;7.43;;;38.10;35.60;;;;;;5033633;28;20408;-66
2021/07/23 10:07:10;;;;;;;7.70;6.90;;;38.90;35.40;;;;;;5033312;28;20442;-65
2021/07/23 10:09:38;;;;;;;8.27;7.47;;;39.40;32.60;;;;;;5033177;28;20479;-65
2021/07/23 10:12:07;;;;;;;8.80;7.37;;;39.20;34.00;;;;;;5033442;28;20410;-65
2021/07/23 10:14:43;;;;;;;8.23;7.53;;;38.90;35.60;;;;;;5033406;28;20404;-65
2021/07/23 10:17:08;;;;;;;8.20;7.40;;;39.00;35.20;;;;;;5033572;28;20450;-66
2021/07/23 10:19:37;;;;;;;11.80;8.03;;;39.40;34.40;;;;;;5033112;28;20499;-66
2021/07/23 10:22:03;;;;;;;9.30;7.10;;;39.10;33.10;;;;;;5033322;28;20171;-65
2021/07/23 10:24:35;;;;;;;10.23;8.20;;;37.70;33.50;;;;;;5033051;28;20405;-65
2021/07/23 10:27:08;;;;;;;7.63;6.80;;;37.60;35.00;;;;;;5033346;28;20479;-65
2021/07/23 10:29:47;;;;;;;11.53;9.10;;;37.90;36.40;;;;;;5033122;28;20508;-65
2021/07/23 10:32:25;;;;;;;9.17;8.07;;;37.90;35.60;;;;;;5033088;28;20837;-66
2021/07/23 10:34:52;;;;;;;8.37;7.47;;;37.60;34.70;;;;;;5033139;28;20397;-65
2021/07/23 10:37:30;;;;;;;7.37;6.60;;;36.80;35.60;;;;;;5033111;28;20421;-65
2021/07/23 10:40:11;;;;;;;7.77;6.97;;;36.50;35.60;;;;;;5033194;28;20390;-65
2021/07/23 10:42:38;;;;;;;8.00;7.20;;;36.40;35.10;;;;;;5033190;28;20397;-65
2021/07/23 10:45:06;;;;;;;8.10;7.30;;;36.10;35.70;;;;;;5033080;28;20400;-65
2021/07/23 10:47:37;;;;;;;8.90;7.87;;;35.70;38.30;;;;;;5033064;28;20794;-65
2021/07/23 10:50:04;;;;;;;7.83;7.03;;;35.40;35.40;;;;;;5036841;28;20496;-65
2021/07/23 10:52:37;;;;;;;8.77;7.83;;;34.90;35.00;;;;;;5036876;28;20406;-65
2021/07/23 10:55:16;;;;;;;7.60;6.80;;;34.50;37.40;;;;;;5036965;28;20400;-65
2021/07/23 10:57:43;;;;;;;9.97;7.30;;;34.40;35.00;;;;;;5036681;28;20425;-65
2021/07/23 11:00:09;;;;;;;9.20;7.83;;;34.80;37.10;;;;;;5036315;28;20798;-65
2021/07/23 11:02:35;;;;;;;8.27;7.00;;;34.00;38.50;;;;;;5036429;28;20439;-65
2021/07/23 11:05:09;;;;;;;9.70;7.67;;;33.70;40.20;;;;;;5036573;28;20393;-65
2021/07/23 11:07:36;;;;;;;8.80;7.83;;;33.30;40.50;;;;;;5036366;28;20618;-65
2021/07/23 11:10:03;;;;;;;8.60;7.70;;;32.90;40.50;;;;;;5036275;28;20412;-65
2021/07/23 11:12:33;;;;;;;7.83;6.13;;;32.40;38.50;;;;;;5036520;28;20411;-65
2021/07/23 11:15:01;;;;;;;11.83;7.17;;;31.90;39.10;;;;;;5036479;28;20888;-65
2021/07/23 11:17:30;;;;;;;8.53;7.00;;;31.40;39.10;;;;;;5036207;28;20425;-65
2021/07/23 11:20:03;;;;;;;8.30;6.27;;;31.10;39.00;;;;;;5036074;28;20447;-65
2021/07/23 11:22:32;;;;;;;6.57;5.80;;;31.20;39.50;;;;;;5036429;28;20877;-65
2021/07/23 11:25:07;;;;;;;5.90;5.13;;;31.00;35.80;;;;;;5036331;28;20505;-65
2021/07/23 11:27:35;;;;;;;7.13;5.80;;;30.80;37.50;;;;;;5036042;28;20801;-65
2021/07/23 11:30:14;;;;;;;8.23;7.43;;;30.70;38.50;;;;;;5035867;28;20889;-65
2021/07/23 11:32:55;;;;;;;9.77;6.93;;;30.50;41.50;;;;;;5036109;28;20768;-65
2021/07/23 11:35:25;;;;;;;7.33;6.27;;;30.40;42.50;;;;;;5036220;28;20412;-65
2021/07/23 11:37:52;;;;;;;7.87;7.07;;;30.40;41.50;;;;;;5035837;28;20429;-64
2021/07/23 11:40:21;;;;;;;7.43;6.73;;;29.90;41.80;;;;;;5035719;28;20414;-65
2021/07/23 11:42:53;;;;;;;9.60;7.30;;;29.70;42.70;;;;;;5036178;28;20425;-65
2021/07/23 11:45:22;;;;;;;8.00;7.20;;;29.70;42.70;;;;;;5035769;28;20433;-64
2021/07/23 11:47:49;;;;;;;8.40;7.50;;;29.50;43.70;;;;;;5035626;28;20453;-65
2021/07/23 11:50:21;;;;;;;8.57;7.30;;;29.60;44.70;;;;;;5035491;28;20421;-65
2021/07/23 11:52:51;;;;;;;11.57;8.47;;;29.80;44.30;;;;;;5035899;28;20723;-65
2021/07/23 11:55:18;;;;;;;8.20;6.50;;;29.70;42.60;;;;;;5035679;28;20907;-64
2021/07/23 11:57:45;;;;;;;9.20;7.20;;;29.60;41.50;;;;;;5035551;28;20433;-65
2021/07/23 12:00:17;;;;;;;8.03;7.07;;;29.10;42.60;;;;;;5034351;28;20886;-65
2021/07/23 12:02:42;;;;;;;7.83;6.77;;;28.80;44.20;;;;;;5035420;28;20421;-65
2021/07/23 12:05:13;;;;;;;9.03;7.20;;;28.70;42.60;;;;;;5035431;28;20402;-65
2021/07/23 12:07:39;;;;;;;7.37;6.57;;;28.60;43.90;;;;;;5035200;28;20206;-65
2021/07/23 12:10:16;;;;;;;7.03;6.40;;;28.90;43.70;;;;;;5035307;28;20774;-65
2021/07/23 12:12:43;;;;;;;9.60;7.10;;;28.80;43.50;;;;;;5035437;28;20443;-65
2021/07/23 12:15:13;;;;;;;10.40;7.20;;;29.00;43.50;;;;;;5035295;28;20911;-65
2021/07/23 12:17:43;;;;;;;9.17;6.93;;;28.90;40.40;;;;;;5035079;28;20425;-65
2021/07/23 12:20:10;;;;;;;7.80;6.30;;;29.00;40.70;;;;;;5034968;28;20433;-65
2021/07/23 12:22:35;;;;;;;7.47;6.37;;;29.00;42.00;;;;;;5035195;28;20410;-65
2021/07/23 12:25:14;;;;;;;9.60;7.83;;;29.20;44.40;;;;;;5034966;28;20413;-65
2021/07/23 12:27:40;;;;;;;9.33;7.27;;;29.50;45.10;;;;;;5034952;28;20186;-65
2021/07/23 12:30:06;;;;;;;9.03;7.30;;;29.60;41.40;;;;;;5034932;28;20895;-65
2021/07/23 12:32:32;;;;;;;7.60;6.43;;;29.50;41.60;;;;;;5034946;28;20171;-65
2021/07/23 12:35:00;;;;;;;10.37;7.53;;;29.50;44.20;;;;;;5034905;28;20772;-65
2021/07/23 12:37:26;;;;;;;8.73;7.77;;;29.60;43.70;;;;;;5034680;28;20465;-65
2021/07/23 12:39:57;;;;;;;8.50;6.90;;;29.60;42.60;;;;;;5034647;28;20413;-65